http://www.ohio.gov http://www.dot.state.oh.us
W W W . B U C K E Y E T R A F F I C . O R G

1-SR49 @ SR249 (200000) Status Air Temp Sfc Temp Sub Temp Dew Temp Wind Precip Traffic Updated
Sensor [A]: Atmospheric - 28.4 - - - - - - 12/21/2014 3:15:59 AM
Sensor [0]: SR49 NB Lane Wet - 34.7 - - - - 0 / 9.9 12/21/2014 3:15:59 AM
Sensor [1]: SR 249 EB Lane Wet - 34.7 - - - - 0 / 9.9 12/21/2014 3:15:59 AM
2-SR-309 @ SR-235 (200001) Status Air Temp Sfc Temp Sub Temp Dew Temp Wind Precip Traffic Updated
Sensor [A]: Atmospheric - 24.3 - - 22.1 0.6 / N - - 12/21/2014 3:14:24 AM
Sensor [1]: SR235 SB Dry - 29.3 - - - - - 12/21/2014 3:14:24 AM
3-US24 @ Indiana Line (200002) Status Air Temp Sfc Temp Sub Temp Dew Temp Wind Precip Traffic Updated
Sensor [A]: Atmospheric - 30.0 - - 27.9 3.1 / SW - - 12/21/2014 3:16:04 AM
Sensor [0]: EB Driving Dry - 34.7 38.3 - - - 0 / 9.9 12/21/2014 3:16:04 AM
Sensor [1]: WB Driving Dry - 34.7 - - - - 0 / 9.9 12/21/2014 3:16:04 AM
4-US224 @ SR190 (200003) Status Air Temp Sfc Temp Sub Temp Dew Temp Wind Precip Traffic Updated
Sensor [A]: Atmospheric - 28.6 - - 26.1 1.2 / S - - 12/20/2014 10:11:18 PM
Sensor [0]: Eastbound Driving Lane Trace Moisture - 28.8 - - - - 1 / 65.2 12/20/2014 10:11:18 PM
5- US30 @ SR49 North (200004) Status Air Temp Sfc Temp Sub Temp Dew Temp Wind Precip Traffic Updated
Sensor [A]: Atmospheric - 29.7 - - 28.4 1.2 / SW - - 12/21/2014 3:19:52 AM
Sensor [0]: US30 Westbound Driving Dry - 34.7 - - - - 0 / 9.9 12/21/2014 3:19:52 AM
Sensor [1]: US30 Eastbound Driving Dry - 34.7 - - - - 0 / 9.9 12/21/2014 3:19:52 AM
6-US23 @ SLM 11.2 (200005) Status Air Temp Sfc Temp Sub Temp Dew Temp Wind Precip Traffic Updated
Sensor [A]: Atmospheric - 28.4 - - 24.3 2.5 / SW - - 12/21/2014 3:19:56 AM
7-US30 Bypass @ SR4 (200006) Status Air Temp Sfc Temp Sub Temp Dew Temp Wind Precip Traffic Updated
Sensor [A]: Atmospheric - 29.1 - - - / Unknown - - 12/20/2014 3:01:04 PM
Sensor [0]: US30 East Bound Driving Lane Dry - 158.0 - - - - 20 / 60.9 12/20/2014 3:01:04 PM
Sensor [1]: US30 West Bound Driving Lane Dry - 158.9 - - - - 80 / 158.4 12/20/2014 3:01:04 PM
8-Huron County Garage (200007) Status Air Temp Sfc Temp Sub Temp Dew Temp Wind Precip Traffic Updated
Sensor [A]: Atmospheric - 28.4 - - 25.2 - - - 12/21/2014 3:23:02 AM
Sensor [1]: US250 SB Lane Ice Watch - 31.1 - - - - 0 / 52.8 12/21/2014 3:23:02 AM
9-I77 MM 109 @ Belden Village (200008) Status Air Temp Sfc Temp Sub Temp Dew Temp Wind Precip Traffic Updated
Sensor [A]: Atmospheric - 28.8 - - 21.7 - - - 12/21/2014 3:16:45 AM
Sensor [0]: Ramp Bridge over I-77 Dry - 34.7 38.3 - - - 1 / 9.9 12/21/2014 3:16:45 AM
Sensor [1]: Bridgedeck over I-77 Dry - - - - - - 1 / 9.9 12/21/2014 3:16:45 AM
10-SR5@SR45 (200009) Status Air Temp Sfc Temp Sub Temp Dew Temp Wind Precip Traffic Updated
Sensor [A]: Atmospheric - 28.9 - - 21.7 1.9 / SW - - 12/21/2014 3:22:31 AM
Sensor [0]: EB Driving Ice Watch - 31.1 36.5 - - - - 12/21/2014 3:22:31 AM
Sensor [1]: SR5 EB Passing Ice Watch - 30.2 - - - - - 12/21/2014 3:22:31 AM
Sensor [2]: SR5 WB Passing Bridgedeck Ice Watch - 28.4 - - - - - 12/21/2014 3:22:31 AM
Sensor [3]: SR5 EB passing Bridgedeck Trace Moisture - - - - - - - 12/21/2014 3:22:31 AM
11-SR36@SR206 (200010) Status Air Temp Sfc Temp Sub Temp Dew Temp Wind Precip Traffic Updated
Sensor [A]: Atmospheric - 27.0 - - 25.0 - - - 12/21/2014 3:14:37 AM
Sensor [0]: US36 EB Chemically Wet - 29.3 - - - - - 12/21/2014 3:14:37 AM
Sensor [1]: US36 WB Wet - - - - - - - 12/21/2014 3:14:37 AM
12- US 33 @ MM 11.5 (200011) Status Air Temp Sfc Temp Sub Temp Dew Temp Wind Precip Traffic Updated
Sensor [A]: Atmospheric - 27.7 - - 20.3 3.7 / NW - - 12/18/2014 6:43:37 AM
Sensor [0]: US33 EB Driving Trace Moisture - 32.0 40.3 - - - - 12/18/2014 6:43:37 AM
Sensor [1]: US33 WB Driving Lane Bridgedeck Dry - 29.3 - - - - - 12/18/2014 6:43:37 AM
13-Knox County Garage (200012) Status Air Temp Sfc Temp Sub Temp Dew Temp Wind Precip Traffic Updated
Sensor [A]: Atmospheric - 27.9 - - 25.2 - - - 12/21/2014 3:16:59 AM
Sensor [0]: SR-3 NB Driving Wet - - 36.5 - - - 0 / 9.9 12/21/2014 3:16:59 AM
Sensor [1]: SR-3 SB Driving Wet - - - - - - 0 / 9.9 12/21/2014 3:16:59 AM
14-SR13@CR26N/Sheridan Rd (200013) Status Air Temp Sfc Temp Sub Temp Dew Temp Wind Precip Traffic Updated
Sensor [A]: Atmospheric - 30.2 - - 24.3 7.5 / W - - 12/17/2014 4:42:39 PM
Sensor [0]: SR13 Eastbound Dry - 36.5 - - - - - 12/17/2014 4:42:39 PM
Sensor [1]: SR13 Westbound Dry - 36.5 - - - - - 12/17/2014 4:42:39 PM
15-US35 @ SR62 (200014) Status Air Temp Sfc Temp Sub Temp Dew Temp Wind Precip Traffic Updated
Sensor [A]: Atmospheric - 30.6 - - 8.2 - - - 12/21/2014 3:21:50 AM
Sensor [0]: US35 EB Driving Dry - 29.3 40.1 - - - - 12/21/2014 3:21:50 AM
Sensor [2]: SR62 NB Bridgedeck Ice Watch - 26.6 - - - - - 12/21/2014 3:21:50 AM
Sensor [3]: SR62 NB Bridgedeck Dry - 34.7 - - - - - 12/21/2014 3:21:50 AM
16-SR-752 @ 1.3 Pickaway County (200015) Status Air Temp Sfc Temp Sub Temp Dew Temp Wind Precip Traffic Updated
Sensor [A]: Atmospheric - 29.8 - - 26.2 - - - 12/21/2014 3:11:20 AM
17-US23 @ E. Fairground Road Overpass (200016) Status Air Temp Sfc Temp Sub Temp Dew Temp Wind Precip Traffic Updated
Sensor [A]: Atmospheric - 28.8 - - 24.8 2.5 / S - - 12/20/2014 12:40:27 PM
Sensor [0]: US23 NorthBound Passing Approach No Report - - - - - - - 12/20/2014 12:40:27 PM
Sensor [1]: US23 SouthBound Passing Bridgedeck No Report - - - - - - 34 / 57.2 12/20/2014 12:40:27 PM
18-US33 @ SR739 (200017) Status Air Temp Sfc Temp Sub Temp Dew Temp Wind Precip Traffic Updated
Sensor [A]: Atmospheric - 27.0 - - 26.4 1.9 / W - - 12/21/2014 3:22:47 AM
Sensor [0]: US33 EB Driving Ice Watch - 25.7 34.7 - - - - 12/21/2014 3:22:47 AM
Sensor [1]: US33 EB Passing Ice Watch - 25.7 - - - - - 12/21/2014 3:22:47 AM
Sensor [2]: US33 WB Passing Chemically Wet - 24.8 - - - - - 12/21/2014 3:22:47 AM
Sensor [3]: US33 WB Driving Dry - 31.1 - - - - - 12/21/2014 3:22:47 AM
Sensor [4]: SR739 NB Bridgedeck Ice Watch - 27.5 - - - - - 12/21/2014 3:22:47 AM
Sensor [5]: US33 EB Driving Shade Trace Moisture - 34.7 - - - - - 12/21/2014 3:22:47 AM
19-US68 @ SLM 1.4 (200018) Status Air Temp Sfc Temp Sub Temp Dew Temp Wind Precip Traffic Updated
Sensor [A]: Atmospheric - 28.0 - - 25.2 - - - 12/21/2014 3:09:25 AM
Sensor [0]: US68 SB Driving Lane Dry - 27.9 28.8 - - - - 12/21/2014 3:09:25 AM
Sensor [1]: US68 NB Driving Lane Trace Moisture - 31.1 - - - - - 12/21/2014 3:09:25 AM
Sensor [2]: US68 NB Driving Lane Bridgedeck Trace Moisture - 30.9 - - - - - 12/21/2014 3:09:25 AM
20-SR502 @ SLM 0.5 (200019) Status Air Temp Sfc Temp Sub Temp Dew Temp Wind Precip Traffic Updated
Sensor [A]: Atmospheric - 19.4 - - 20.8 - - - 12/21/2014 3:19:26 AM
Sensor [0]: SR502 EB Lane Dry - - 36.5 - - - 1 / 9.9 12/21/2014 3:19:26 AM
21-US33 @ SR540 (200020) Status Air Temp Sfc Temp Sub Temp Dew Temp Wind Precip Traffic Updated
Sensor [A]: Atmospheric - 26.1 - - 22.5 - - - 12/21/2014 2:48:37 AM
Sensor [0]: US-33 East Bound Driving Lane Dry - 29.3 36.5 - - - 3 / 55.9 12/21/2014 2:48:37 AM
22-SR29 @ SLM 0.8 (200021) Status Air Temp Sfc Temp Sub Temp Dew Temp Wind Precip Traffic Updated
Sensor [A]: Atmospheric - 57.9 - - 50.0 - - - 9/18/2014 8:22:00 AM
Sensor [0]: SR29 EB Lane Error - - 74.1 - - - 0 / 5.0 9/18/2014 8:22:00 AM
Sensor [1]: SR29 WB Lane Error - - - - - - 1 / 5.0 9/18/2014 8:22:00 AM
23-SR41 @ SR136 Adams County (200022) Status Air Temp Sfc Temp Sub Temp Dew Temp Wind Precip Traffic Updated
Sensor [A]: Atmospheric - 49.5 - - 43.3 0.6 / SW - - 12/16/2014 2:03:24 AM
Sensor [0]: SR136 NB Lane Trace Moisture - 47.3 47.3 - - - - 12/16/2014 2:03:24 AM
Sensor [1]: SR136 SB Lane Wet - 47.3 - - - - - 12/16/2014 2:03:24 AM
24-US68@SR125 (200023) Status Air Temp Sfc Temp Sub Temp Dew Temp Wind Precip Traffic Updated
Sensor [A]: Atmospheric - 29.3 - - -20.7 1.2 / S - - 12/21/2014 3:03:46 AM
Sensor [0]: NB US68 Dry - 30.2 - - - - - 12/21/2014 3:03:46 AM
Sensor [1]: SB US68 Dry - 34.7 - - - - - 12/21/2014 3:03:46 AM
25-Highland County Garage (200024) Status Air Temp Sfc Temp Sub Temp Dew Temp Wind Precip Traffic Updated
Sensor [A]: Atmospheric - 49.8 - - 48.2 9.3 / S - - 12/16/2014 5:33:45 AM
26-SR32 @ US35 (200025) Status Air Temp Sfc Temp Sub Temp Dew Temp Wind Precip Traffic Updated
Sensor [A]: Atmospheric - 32.9 - - 24.6 0.6 / N - - 12/20/2014 3:55:49 PM
Sensor [0]: US 35 WB Driving Lane Dry - 38.3 - - - - 40 / 60.3 12/20/2014 3:55:49 PM
Sensor [1]: US 35 EB Driving Lane Dry - 38.3 - - - - 20 / 59.0 12/20/2014 3:55:49 PM
Sensor [2]: SR32 Eastbound Driving Lane Bridgedeck Dry - 38.3 - - - - 20 / 57.8 12/20/2014 3:55:49 PM
Sensor [3]: SR32 Westbound Passing Lane Approach Dry - 36.5 - - - - 0 / 26.7 12/20/2014 3:55:49 PM
27-US52 @ Ice Creek (200026) Status Air Temp Sfc Temp Sub Temp Dew Temp Wind Precip Traffic Updated
Sensor [A]: Atmospheric - 33.1 - - 21.9 1.2 / S - - 12/19/2014 1:12:19 PM
Sensor [0]: SR52 EB Driving Approach Dry - 41.9 41.9 - - - 0 / 9.9 12/19/2014 1:12:19 PM
Sensor [1]: SR52 WB Driving Bridgedeck Dry - 38.3 - - - - 0 / 9.9 12/19/2014 1:12:19 PM
28-US23 @ SLM 6.5 (200027) Status Air Temp Sfc Temp Sub Temp Dew Temp Wind Precip Traffic Updated
Sensor [A]: Atmospheric - 33.4 - - 25.5 2.5 / N - - 12/20/2014 3:51:32 PM
Sensor [0]: US23 NB Driving Dry - 40.5 41.0 - - - - 12/20/2014 3:01:21 PM
Sensor [1]: US23 SB Driving Dry - 40.6 - - - - - 12/20/2014 3:01:21 PM
29-US35 @ MM 14.76 (200028) Status Air Temp Sfc Temp Sub Temp Dew Temp Wind Precip Traffic Updated
Sensor [A]: Atmospheric - 32.5 - - 27.9 6.2 / SW - - 12/17/2014 3:26:16 PM
Sensor [0]: SR35 EB Driving Dry - 114.8 - - - - 35 / 62.8 9/8/2014 1:47:00 PM
Sensor [1]: SR35 WB Passing Error - - - - - - 0 / 47.2 9/8/2014 1:47:00 PM
Sensor [2]: SR35 WB Driving Dry - 68.0 - - - - 1 / 52.2 9/8/2014 1:47:00 PM
Sensor [3]: Bridge Deck Simulator Error - - 50.4 - - - 0 / 55.9 9/8/2014 1:47:00 PM
30-US23 @ SLM 9.2 (200029) Status Air Temp Sfc Temp Sub Temp Dew Temp Wind Precip Traffic Updated
Sensor [A]: Atmospheric - 29.8 - - 25.0 - - - 12/21/2014 3:14:38 AM
Sensor [0]: US23 NB Driving Dry - 34.7 - - - - 0 / 9.9 12/21/2014 3:14:38 AM
Sensor [1]: US23 SB Driving Dry - 34.7 41.9 - - - 0 / 9.9 12/21/2014 3:14:38 AM
31-USR 50 MM 17.68 (200030) Status Air Temp Sfc Temp Sub Temp Dew Temp Wind Precip Traffic Updated
Sensor [A]: Atmospheric - 32.0 - - 26.1 - - - 12/21/2014 3:23:08 AM
Sensor [0]: US50 EB Driving Dry - 34.7 - - - - - 12/21/2014 3:23:08 AM
Sensor [1]: US50 WB Driving Dry - 36.5 - - - - - 12/21/2014 3:23:08 AM
32-USR 35 @ SR 160 (200031) Status Air Temp Sfc Temp Sub Temp Dew Temp Wind Precip Traffic Updated
Sensor [A]: Atmospheric - 31.1 - - 27.3 - - - 12/21/2014 3:23:14 AM
Sensor [0]: SR35 NB Driving Dry - 36.5 - - - - - 12/21/2014 3:23:14 AM
Sensor [1]: SR35 SB Driving Dry - 34.7 - - - - - 12/21/2014 3:23:14 AM
33-US33@mm9.2 (200032) Status Air Temp Sfc Temp Sub Temp Dew Temp Wind Precip Traffic Updated
Sensor [A]: Atmospheric - 27.7 - - 19.0 0.6 / W - - 12/18/2014 7:23:22 AM
Sensor [0]: US33 EB Driving Dry - 29.3 - - - - - 12/18/2014 7:23:22 AM
Sensor [1]: US33 EB Driving Bridgedeck Trace Moisture - 43.7 - - - - - 12/18/2014 7:23:22 AM
34-US33 @ OH7 (200033) Status Air Temp Sfc Temp Sub Temp Dew Temp Wind Precip Traffic Updated
Sensor [A]: Atmospheric - 34.3 - - 24.8 2.5 / W - - 12/17/2014 5:14:34 PM
Sensor [0]: US-33 EB Driving Departure Dry - 38.3 43.7 - - - - 12/17/2014 5:14:34 PM
Sensor [1]: US-33 EB Passing Bridgedeck Dry - 36.5 - - - - - 12/17/2014 5:14:34 PM
Sensor [2]: US-33 WB Driving Approach Dry - 38.3 - - - - - 12/17/2014 5:14:34 PM
35-SR7 @ SLM12.7 (200034) Status Air Temp Sfc Temp Sub Temp Dew Temp Wind Precip Traffic Updated
Sensor [A]: Atmospheric - 33.4 - - 25.3 0.6 / E - - 12/17/2014 7:04:32 PM
Sensor [0]: SR7 NB Driving Lane Dry - 41.9 47.3 - - - - 12/17/2014 7:04:32 PM
Sensor [1]: SR7 SB Driving Lane Dry - 41.9 - - - - - 12/17/2014 7:04:32 PM
36-SR60 @ Monestary Rd (200035) Status Air Temp Sfc Temp Sub Temp Dew Temp Wind Precip Traffic Updated
Sensor [A]: Atmospheric - 29.5 - - 25.0 - - - 12/21/2014 3:22:32 AM
Sensor [0]: SR60 EB Lane Dry - 31.1 38.3 - - - - 12/21/2014 3:22:32 AM
Sensor [1]: SR60 WB Lane Dry - 31.1 - - - - - 12/21/2014 3:22:32 AM
37-SR32@SR160 (200036) Status Air Temp Sfc Temp Sub Temp Dew Temp Wind Precip Traffic Updated
Sensor [A]: Atmospheric - 31.3 - - 22.8 - - - 12/19/2014 5:03:04 PM
Sensor [0]: SR32 WB Passing Bridgedeck Dry - 31.5 - - - - - 12/19/2014 5:03:04 PM
Sensor [1]: SR32 EB Driving Dry - 36.5 - - - - - 12/19/2014 5:03:04 PM
Sensor [2]: SR32 WB Driving Bridgedeck Dry - 34.7 - - - - - 12/19/2014 5:03:04 PM
38-SR43@SR9 (200037) Status Air Temp Sfc Temp Sub Temp Dew Temp Wind Precip Traffic Updated
Sensor [A]: Atmospheric - 27.0 - - 21.6 0.6 / W - - 12/21/2014 3:21:10 AM
Sensor [0]: SR43 NB Chemically Wet - 31.1 34.7 - - - - 12/21/2014 3:21:10 AM
Sensor [1]: SR9 SB Ice Watch - 31.1 - - - - - 12/21/2014 3:21:10 AM
39-SR11@SR267 (200038) Status Air Temp Sfc Temp Sub Temp Dew Temp Wind Precip Traffic Updated
Sensor [A]: Atmospheric - 27.1 - - 20.1 - - - 12/20/2014 10:20:36 PM
Sensor [0]: SR11 NB Driving Dry - 34.7 41.9 - - - - 12/20/2014 10:20:36 PM
Sensor [1]: SR11 SB Driving Trace Moisture - 34.7 - - - - - 12/20/2014 10:20:36 PM
40-Clinton County Garage (200039) Status Air Temp Sfc Temp Sub Temp Dew Temp Wind Precip Traffic Updated
Sensor [A]: Atmospheric - 29.1 - - 27.5 - - - 12/20/2014 5:07:01 PM
41- SR62@SR206 (200042) Status Air Temp Sfc Temp Sub Temp Dew Temp Wind Precip Traffic Updated
Sensor [A]: Atmospheric - 29.7 - - 25.2 - - - 12/21/2014 3:22:52 AM
Sensor [0]: SR62 EB Chemically Wet - 28.4 - - - - 1 / 37.3 12/21/2014 3:22:52 AM
Sensor [1]: SR62 WB Chemically Wet - 28.4 - - - - 0 / 32.3 12/21/2014 3:22:52 AM
42- SR7@ SLM14.65 (200041) Status Air Temp Sfc Temp Sub Temp Dew Temp Wind Precip Traffic Updated
Sensor [A]: Atmospheric - 32.0 - - 21.7 0.6 / NW - - 12/19/2014 9:40:34 PM
Sensor [0]: SR7 Passing Dry - 32.0 - - - - - 12/19/2014 9:40:34 PM
Sensor [2]: SR7 SB Driving Dry - 36.5 - - - - - 12/19/2014 9:40:34 PM
51-I-70 @ 1.0 MM (200050) Status Air Temp Sfc Temp Sub Temp Dew Temp Wind Precip Traffic Updated
Sensor [A]: Atmospheric - 21.0 - - 19.2 - - - 12/21/2014 3:11:22 AM
Sensor [0]: IR70 EB Driving Ice Watch - 27.5 38.3 - - - 56 / 62.1 12/21/2014 3:11:22 AM
Sensor [1]: IR70 WB Driving Dry - 27.5 - - - - 60 / 60.3 12/21/2014 3:11:22 AM
52-18 MM MOT/PRE (200051) Status Air Temp Sfc Temp Sub Temp Dew Temp Wind Precip Traffic Updated
Sensor [A]: Atmospheric - -19.1 - - -65.0 - - - 12/21/2014 3:11:39 AM
Sensor [0]: IR70 WB Passing Dry - 20.3 - - - - 56 / 57.8 12/21/2014 3:11:39 AM
Sensor [1]: IR70 EB Driving Dry - 27.5 - - - - 0 / 62.1 12/21/2014 3:11:39 AM
53-CLA-70 @ I675 ***Under Construction*** (200052) Status Air Temp Sfc Temp Sub Temp Dew Temp Wind Precip Traffic Updated
Sensor [A]: Atmospheric - 28.6 - - 23.9 - - - 12/21/2014 3:23:04 AM
54-IR70 MM 62 (200053) Status Air Temp Sfc Temp Sub Temp Dew Temp Wind Precip Traffic Updated
Sensor [A]: Atmospheric - 28.9 - - 21.4 3.1 / NW - - 12/21/2014 3:19:46 AM
Sensor [0]: I70 EB Driving Wet - - 40.1 - - - 0 / 9.9 12/21/2014 3:19:46 AM
Sensor [1]: I70 WB Passing Dry - - - - - - 0 / 9.9 12/21/2014 3:19:46 AM
55-IR70 MM 142 (200054) Status Air Temp Sfc Temp Sub Temp Dew Temp Wind Precip Traffic Updated
Sensor [A]: Atmospheric - 29.1 - - 22.5 - - - 12/20/2014 9:00:38 AM
Sensor [1]: IR70 EB Driving Wet - 34.7 - - - - 35 / 39.8 12/20/2014 9:00:38 AM
56-IR70 MM 169 (200055) Status Air Temp Sfc Temp Sub Temp Dew Temp Wind Precip Traffic Updated
Sensor [A]: Atmospheric - 28.9 - - 22.1 0.6 / E - - 12/20/2014 7:03:06 AM
Sensor [0]: IR70 EB Driving Dry - 34.7 40.1 - - - 4 / 18.0 12/20/2014 7:03:06 AM
Sensor [1]: IR70 WB Driving Dry - 34.7 - - - - 25 / 62.8 12/20/2014 7:03:06 AM
57-IR70 MM 198 (200056) Status Air Temp Sfc Temp Sub Temp Dew Temp Wind Precip Traffic Updated
Sensor [A]: Atmospheric - 30.4 - - 24.3 1.9 / E - - 12/19/2014 3:31:01 PM
Sensor [0]: IR70 EB Driving Dry - 34.7 36.5 - - - 40 / 57.2 12/19/2014 3:31:01 PM
Sensor [1]: IR70 EB Passing Dry - 34.7 - - - - 1 / 26.7 12/19/2014 3:31:01 PM
Sensor [2]: IR70 WB Passing Dry - 34.7 - - - - 20 / 57.8 12/19/2014 3:31:01 PM
58-IR470 MM 6 (200057) Status Air Temp Sfc Temp Sub Temp Dew Temp Wind Precip Traffic Updated
Sensor [A]: Atmospheric - 32.2 - - 20.8 - - - 12/20/2014 5:33:20 PM
59- US 127 @ SR 744 (200058) Status Air Temp Sfc Temp Sub Temp Dew Temp Wind Precip Traffic Updated
Sensor [A]: Atmospheric - 19.2 - - 17.4 0.6 / W - - 12/21/2014 3:23:40 AM
Sensor [0]: US127 NB Bridgedeck Dry - 20.7 - - - - 55 / 64.0 12/21/2014 3:23:40 AM
Sensor [1]: US127 SB Bridgedeck Dry - 20.7 - - - - 31 / 70.8 12/21/2014 3:23:40 AM
60-IR71 MM 62 (200059) Status Air Temp Sfc Temp Sub Temp Dew Temp Wind Precip Traffic Updated
Sensor [A]: Atmospheric - 27.3 - - 24.1 - - - 12/21/2014 3:15:16 AM
Sensor [0]: IR71 SB Passing Dry - 25.7 38.3 - - - 0 / 65.2 12/21/2014 3:15:16 AM
Sensor [1]: IR71 SB Center Ice Watch - 25.7 - - - - 1 / 65.2 12/21/2014 3:15:16 AM
Sensor [2]: IR71 NB Driving Dry - 31.1 - - - - 0 / 9.9 12/21/2014 3:15:16 AM
Sensor [3]: IR71 NB Passing Bridgedeck Dry - 29.3 - - - - 0 / 9.9 12/21/2014 3:15:16 AM
61-IR71 MM 79 (200060) Status Air Temp Sfc Temp Sub Temp Dew Temp Wind Precip Traffic Updated
Sensor [A]: Atmospheric - 29.1 - - 24.3 1.2 / W - - 12/21/2014 3:15:20 AM
Sensor [0]: IR71 NB Passing Dry - 30.2 32.0 - - - 1 / 65.2 12/21/2014 3:15:20 AM
Sensor [2]: IR71 NB Driving Dry - 34.7 - - - - 0 / 9.9 12/21/2014 3:15:20 AM
62- Cemetary Rd. Over I-270 (200061) Status Air Temp Sfc Temp Sub Temp Dew Temp Wind Precip Traffic Updated
Sensor [A]: Atmospheric - 29.5 - - 24.4 - - - 12/21/2014 3:21:49 AM
Sensor [1]: I270 NB Passing Dry - 34.7 - - - - 35 / 60.3 12/21/2014 3:21:49 AM
Sensor [2]: Cemetary Rd WB Passing Dry - 34.7 - - - - 0 / 59.0 12/21/2014 3:21:49 AM
63-I71 MM 144 ***Under Construction*** (200062) Status Air Temp Sfc Temp Sub Temp Dew Temp Wind Precip Traffic Updated
Sensor [A]: Atmospheric - 60.3 - - 47.3 6.2 / E - - 4/9/2013 8:12:09 AM
Sensor [0]: I71 NB Driving (Deck) Dry - 68.9 46.9 - - - 46 / 55.9 4/9/2013 8:12:09 AM
Sensor [1]: I71 NB Passing (Approach) Dry - 60.1 - - - - 0 / 5.0 4/9/2013 8:12:09 AM
Sensor [3]: I71 SB Driving (Departure) Dry - 63.3 - - - - 0 / 65.2 4/9/2013 8:12:09 AM
64-I71 MM 158 (200063) Status Air Temp Sfc Temp Sub Temp Dew Temp Wind Precip Traffic Updated
Sensor [A]: Atmospheric - 29.3 - - 22.3 1.2 / W - - 12/20/2014 4:14:54 PM
Sensor [0]: IR71 NB Driving Wet - 34.7 38.3 - - - 0 / 9.9 12/20/2014 4:14:54 PM
Sensor [1]: IR71 SB Driving Dry - 34.7 - - - - 0 / 9.9 12/20/2014 4:14:54 PM
65-IR71 MM 174 (200064) Status Air Temp Sfc Temp Sub Temp Dew Temp Wind Precip Traffic Updated
Sensor [A]: Atmospheric - 27.9 - - 23.4 - - - 12/21/2014 3:18:59 AM
Sensor [0]: IR71 NB Driving Ice Watch - 30.2 31.1 - - - 7 / 62.1 12/21/2014 3:18:59 AM
Sensor [2]: IR71 SB Center Dry - 29.3 - - - - 2 / 60.9 12/21/2014 3:18:59 AM
66-IR71 MM 195.55 (200065) Status Air Temp Sfc Temp Sub Temp Dew Temp Wind Precip Traffic Updated
Sensor [A]: Atmospheric - 29.3 - - 21.7 6.2 / SW - - 12/17/2014 6:00:35 PM
Sensor [0]: IR71 North Bound Driving Lane Dry - 32.9 43.7 - - - 4 / 55.3 12/17/2014 6:00:35 PM
Sensor [1]: IR71 South Bound Passing Lane Dry - 31.1 - - - - 0 / 54.1 12/17/2014 6:00:35 PM
Sensor [2]: IR71 South Bound Driving Lane Dry - 36.5 - - - - 0 / 21.7 12/17/2014 6:00:35 PM
67-IR71 MM 209 (200066) Status Air Temp Sfc Temp Sub Temp Dew Temp Wind Precip Traffic Updated
Sensor [A]: Atmospheric - 27.5 - - 22.6 - - - 12/21/2014 3:19:02 AM
Sensor [0]: IR71 NB Driving Wet - 34.7 38.3 - - - 0 / 9.9 12/21/2014 3:19:02 AM
Sensor [1]: IR71 SB Driving Bridgedeck Ice Watch - 31.1 - - - - 0 / 9.9 12/21/2014 3:19:02 AM
68-IR271 @ IR77 (200067) Status Air Temp Sfc Temp Sub Temp Dew Temp Wind Precip Traffic Updated
Sensor [A]: Atmospheric - 27.7 - - 20.7 1.9 / SW - - 12/21/2014 3:19:05 AM
Sensor [1]: I271 NB Driving Ice Watch - 29.3 - - - - 0 / 9.9 12/21/2014 3:19:05 AM
69-IR275 MM 21 (200068) Status Air Temp Sfc Temp Sub Temp Dew Temp Wind Precip Traffic Updated
Sensor [A]: Atmospheric - 26.6 - - 24.1 - - - 12/21/2014 3:15:23 AM
Sensor [0]: IR275 NB Driving Dry - 31.1 40.1 - - - 1 / 9.9 12/21/2014 3:15:23 AM
Sensor [1]: IR275 SB Driving Dry - 34.7 - - - - 1 / 9.9 12/21/2014 3:15:23 AM
70-IR275 HAM/CLER (200069) Status Air Temp Sfc Temp Sub Temp Dew Temp Wind Precip Traffic Updated
Sensor [A]: Atmospheric - 25.0 - - 23.2 - - - 12/21/2014 3:10:40 AM
Sensor [0]: I275 EB Driving Dry - 31.1 40.1 - - - 0 / 62.1 12/21/2014 3:10:40 AM
Sensor [1]: I275 WB Driving Dry - 31.1 - - - - 0 / 60.9 12/21/2014 3:10:40 AM
71-I675 MONT/GRE (200070) Status Air Temp Sfc Temp Sub Temp Dew Temp Wind Precip Traffic Updated
Sensor [A]: Atmospheric - 28.2 - - 23.4 - - - 12/21/2014 3:13:58 AM
Sensor [0]: I675 NB Driving Dry - 38.3 38.3 - - - 46 / 60.9 12/21/2014 3:13:58 AM
Sensor [1]: I675 SB Driving Dry - 38.3 - - - - 97 / 62.8 12/21/2014 3:13:58 AM
72-18 MM BUT/HAM (200071) Status Air Temp Sfc Temp Sub Temp Dew Temp Wind Precip Traffic Updated
Sensor [A]: Atmospheric - 24.1 - - 21.9 1.2 / NW - - 12/21/2014 3:13:05 AM
Sensor [0]: IR75 NB Passing Dry - 23.0 41.9 - - - - 12/21/2014 3:13:05 AM
Sensor [1]: IR75 SB Driving Dry - 29.3 - - - - - 12/21/2014 3:13:05 AM
73-I75mm27.5 SB (200072) Status Air Temp Sfc Temp Sub Temp Dew Temp Wind Precip Traffic Updated
Sensor [A]: Atmospheric - 20.5 - - 18.5 0.6 / SW - - 12/21/2014 3:22:32 AM
Sensor [0]: IR75 NB Driving Dry - 27.5 - - - - - 12/21/2014 3:22:32 AM
Sensor [1]: IR75 SB Driving Dry - 27.5 - - - - - 12/21/2014 3:22:32 AM
74-IR75 MM 40 (200073) Status Air Temp Sfc Temp Sub Temp Dew Temp Wind Precip Traffic Updated
Sensor [A]: Atmospheric - 30.9 - - 23.5 - - - 12/20/2014 4:32:12 PM
Sensor [0]: IR75 NB Driving Dry - 36.5 40.1 - - - 26 / 14.3 12/20/2014 4:32:12 PM
Sensor [1]: IR75 SB Driving Dry - 36.5 - - - - 9 / 19.3 12/20/2014 4:32:12 PM
75-SR16@COS/MUS (200074) Status Air Temp Sfc Temp Sub Temp Dew Temp Wind Precip Traffic Updated
Sensor [A]: Atmospheric - 29.3 - - 25.2 - - - 12/21/2014 3:22:11 AM
76-IR75 MM 84 (200075) Status Air Temp Sfc Temp Sub Temp Dew Temp Wind Precip Traffic Updated
Sensor [A]: Atmospheric - 28.6 - - 25.0 - - - 12/21/2014 3:18:50 AM
Sensor [0]: IR75 North Bound Driving Lane Dry - 30.2 77.9 - - - 8 / 54.1 12/21/2014 3:18:50 AM
Sensor [1]: IR75 North Bound Passing Lane Dry - 30.2 - - - - 2 / 65.2 12/21/2014 3:18:50 AM
77-IR75 MM 105 (200076) Status Air Temp Sfc Temp Sub Temp Dew Temp Wind Precip Traffic Updated
Sensor [A]: Atmospheric - 28.2 - - 27.0 - - - 12/21/2014 3:14:43 AM
Sensor [0]: IR75 NB Driving Dry - 34.7 39.0 - - - 0 / 9.9 12/21/2014 3:14:43 AM
Sensor [1]: IR75 SB Driving Dry - 34.7 - - - - 0 / 9.9 12/21/2014 3:14:43 AM
78-IR75 MM 119 (200077) Status Air Temp Sfc Temp Sub Temp Dew Temp Wind Precip Traffic Updated
Sensor [A]: Atmospheric - 29.8 - - 23.4 0.6 / NW - - 12/19/2014 7:31:27 PM
79-IR75 MM 141 (200078) Status Air Temp Sfc Temp Sub Temp Dew Temp Wind Precip Traffic Updated
Sensor [A]: Atmospheric - 24.8 - - 22.5 1.9 / SE - - 12/21/2014 3:19:58 AM
Sensor [0]: IR75 NB Driving Dry - 29.3 38.3 - - - 0 / 9.9 12/21/2014 3:19:58 AM
Sensor [1]: IR75 SB Driving Dry - 29.3 - - - - 0 / 9.9 12/21/2014 3:19:58 AM
80-IR77 MM 0 (200079) Status Air Temp Sfc Temp Sub Temp Dew Temp Wind Precip Traffic Updated
Sensor [A]: Atmospheric - 29.3 - - - / Unknown - - 12/19/2014 7:33:53 AM
Sensor [0]: I77 SB Driving Lane Dry - 34.0 - - - - - 12/19/2014 7:33:53 AM
81-IR77 MM 16 (200080) Status Air Temp Sfc Temp Sub Temp Dew Temp Wind Precip Traffic Updated
Sensor [A]: Atmospheric - 40.8 - - 38.5 3.7 / NW - - 12/17/2014 1:15:11 AM
Sensor [0]: IR77 SB Driving Trace Moisture - 42.8 - - - - - 12/17/2014 1:15:11 AM
82-IR77 MM 36 (200081) Status Air Temp Sfc Temp Sub Temp Dew Temp Wind Precip Traffic Updated
Sensor [A]: Atmospheric - 26.2 - - - / Unknown Snow / 0.0 - 12/18/2014 6:51:59 PM
Sensor [0]: IR77 SB Driving Trace Moisture - 32.2 40.6 - - - 27 / 64.0 12/18/2014 6:51:59 PM
Sensor [1]: IR77 NB Driving Dry - 31.1 - - - - 0 / 52.8 12/18/2014 6:51:59 PM
83-IR77 MM 59 (200082) Status Air Temp Sfc Temp Sub Temp Dew Temp Wind Precip Traffic Updated
Sensor [A]: Atmospheric - 28.9 - - 24.4 - - - 12/21/2014 3:23:32 AM
Sensor [0]: IR77 NB Driving Dry - 34.7 40.1 - - - 0 / 5.0 12/21/2014 3:23:32 AM
Sensor [1]: IR77 SB Driving Trace Moisture - 34.7 - - - - 0 / 5.0 12/21/2014 3:23:32 AM
84-IR77 MM 93 (200083) Status Air Temp Sfc Temp Sub Temp Dew Temp Wind Precip Traffic Updated
Sensor [A]: Atmospheric - 28.2 - - 26.1 2.5 / SW - - 12/19/2014 1:33:57 AM
Sensor [0]: IR77 NB Passing Lane Wet - 32.7 39.0 - - - 0 / 52.8 12/19/2014 1:33:57 AM
Sensor [1]: IR77 SB Passing Lane Chemically Wet - 30.9 - - - - 0 / 6.8 12/19/2014 1:33:57 AM
85-SR2 @ Huron River (200084) Status Air Temp Sfc Temp Sub Temp Dew Temp Wind Precip Traffic Updated
Sensor [A]: Atmospheric - 31.3 - - 20.5 - - - 12/20/2014 12:57:02 PM
Sensor [0]: SR2 WB Passing Dry - 37.4 40.1 - - - 8959 / 154.1 12/20/2014 12:57:02 PM
Sensor [1]: SR2 EB Driving Departure Wet - 38.3 - - - - 1 / 5.0 12/20/2014 12:57:02 PM
86-IR90 @ SR57 (200085) Status Air Temp Sfc Temp Sub Temp Dew Temp Wind Precip Traffic Updated
Sensor [A]: Atmospheric - 31.1 - - 21.6 2.5 / SW - - 12/20/2014 1:53:13 PM
Sensor [0]: IR90 EB Driving No Report - - - - - - 34 / 6.2 12/20/2014 1:53:13 PM
Sensor [1]: IR90 WB Driving Dry - 36.7 - - - - 0 / 5.0 12/20/2014 1:53:13 PM
87-IR90 ATB/LAKE (200086) Status Air Temp Sfc Temp Sub Temp Dew Temp Wind Precip Traffic Updated
Sensor [A]: Atmospheric - 30.0 - - 24.3 - - - 12/21/2014 3:01:56 AM
Sensor [0]: I90 EB Passing Chemically Wet - 31.5 38.3 - - - 92 / 62.1 12/21/2014 3:01:56 AM
Sensor [1]: I90 EB Driving Trace Moisture - 34.7 - - - - 2 / 5.0 12/21/2014 3:01:56 AM
Sensor [2]: I90 WB Passing Trace Moisture - 34.7 - - - - 52 / 59.0 12/21/2014 3:01:56 AM
88-IR90 @ SR11 (200087) Status Air Temp Sfc Temp Sub Temp Dew Temp Wind Precip Traffic Updated
Sensor [A]: Atmospheric - 29.7 - - 21.9 5.6 / W - - 12/19/2014 9:53:45 PM
Sensor [0]: IR90 EB Passing No Report - - - - - - 0 / 158.4 12/19/2014 9:53:45 PM
Sensor [1]: IR90 WB Passing Dry - 161.6 - - - - 31 / 65.2 12/19/2014 9:53:45 PM
89-IR90 @ PA Line (200088) Status Air Temp Sfc Temp Sub Temp Dew Temp Wind Precip Traffic Updated
Sensor [A]: Atmospheric - 31.5 - - 23.9 1.2 / E - - 12/20/2014 2:08:12 PM
Sensor [0]: IR90 EB Driving Bridgedeck Wet - 34.7 - - - - - 12/20/2014 2:08:12 PM
Sensor [1]: IR90 EB Passing No Report - - - - - - - 12/20/2014 2:08:12 PM
Sensor [2]: IR90 WB Passing Bridgedeck Dry - 34.2 - - - - - 12/20/2014 2:08:12 PM
Sensor [3]: IR90 WB Driving No Report - - - - - - - 12/20/2014 2:08:12 PM
90-IR80 @ PA Line (200089) Status Air Temp Sfc Temp Sub Temp Dew Temp Wind Precip Traffic Updated
Sensor [A]: Atmospheric - 30.6 - - 21.0 0.6 / NW - - 12/20/2014 3:35:26 PM
Sensor [0]: IR80 EB Driving Dry - 38.3 39.2 - - - 21 / 49.1 12/20/2014 3:35:26 PM
Sensor [1]: IR80 WB Driving Dry - 38.5 - - - - 0 / 47.8 12/20/2014 3:35:26 PM
91-IR76 MAH/POR (200090) Status Air Temp Sfc Temp Sub Temp Dew Temp Wind Precip Traffic Updated
Sensor [A]: Atmospheric - 28.6 - - 21.2 - - - 12/21/2014 3:02:12 AM
Sensor [1]: IR76 WB Passing Bridgedeck Trace Moisture - 34.7 - - - - 22 / 55.9 12/21/2014 3:02:12 AM
Sensor [3]: IR76 WB Driving Bridgedeck Dry - 34.7 - - - - 43 / 64.0 12/21/2014 3:02:12 AM
92-IR76 POR/SUM (200091) Status Air Temp Sfc Temp Sub Temp Dew Temp Wind Precip Traffic Updated
Sensor [A]: Atmospheric - 47.3 - - 45.5 6.8 / W Rain / 0.0 - 12/16/2014 1:21:31 PM
94-SR11 ATB/TRUM (200093) Status Air Temp Sfc Temp Sub Temp Dew Temp Wind Precip Traffic Updated
Sensor [A]: Atmospheric - 27.3 - - 20.8 1.2 / W - - 12/20/2014 12:54:42 AM
Sensor [0]: SR11 NB Driving No Report - - - - - - 22 / 64.0 12/20/2014 12:54:42 AM
Sensor [1]: SR11 SB Driving No Report - - - - - - 2 / 9.9 12/20/2014 12:54:42 AM
95-SR11 MAH/COL (200094) Status Air Temp Sfc Temp Sub Temp Dew Temp Wind Precip Traffic Updated
Sensor [A]: Atmospheric - 41.5 - - 40.3 12.4 / SW - - 12/16/2014 11:01:44 PM
Sensor [0]: SR11 NB Driving Trace Moisture - 42.1 44.2 - - - 0 / 64.0 12/16/2014 11:01:44 PM
Sensor [1]: SR11 SB Driving Trace Moisture - 42.6 - - - - 0 / 9.9 12/16/2014 11:01:44 PM
97-SR315 @ I270 (200096) Status Air Temp Sfc Temp Sub Temp Dew Temp Wind Precip Traffic Updated
Sensor [A]: Atmospheric - 30.2 - - 25.0 - - - 12/21/2014 3:10:38 AM
Sensor [0]: I270 WB Driving Dry - 31.1 - - - - 4 / 26.7 12/21/2014 3:10:38 AM
Sensor [1]: I270 WB Passing Dry - 34.7 - - - - 0 / 42.3 12/21/2014 3:10:38 AM
Sensor [2]: IR Ice Detection Sensor Dry - - - - - - 6 / 60.3 12/21/2014 3:10:38 AM
98-I270 SB Ramp to SR161 EB (200097) Status Air Temp Sfc Temp Sub Temp Dew Temp Wind Precip Traffic Updated
Sensor [A]: Atmospheric - 28.2 - - 21.6 1.2 / NE - - 12/19/2014 8:21:52 AM
Sensor [0]: SR161 WB Passing Bridgedeck Chemically Wet - 28.4 - - - - 29 / 60.9 12/19/2014 8:21:52 AM
Sensor [1]: SR161 WB Driving Ice Watch - 31.1 - - - - 0 / 50.3 12/19/2014 8:21:52 AM
99-US30 @ Dalton (200098) Status Air Temp Sfc Temp Sub Temp Dew Temp Wind Precip Traffic Updated
Sensor [A]: Atmospheric - 30.9 - - 24.8 - - - 12/19/2014 4:04:00 PM
Sensor [0]: US30E Driving Lane Error - - 61.3 - - - 0 / 50.3 12/19/2014 4:04:00 PM
Sensor [1]: US30E Passing Lane Dry - 33.8 - - - - 39 / 55.3 12/19/2014 4:04:00 PM
Sensor [2]: US30W Passing Lane - Bridgedeck Ice Warning - 33.1 - - - - 20 / 55.3 12/19/2014 4:04:00 PM
Sensor [3]: US30W Driving Lane - Bridgedeck Error - - - - - - 761 / 62.1 12/19/2014 4:04:00 PM
100-SR225 @ Berlin Reservoir (200099) Status Air Temp Sfc Temp Sub Temp Dew Temp Wind Precip Traffic Updated
Sensor [A]: Atmospheric - 32.0 - - 20.3 9.9 / W - - 12/11/2014 8:03:16 PM
Sensor [0]: SR225 NB Lane Dry - 31.8 39.7 - - - 0 / 65.2 12/11/2014 7:53:17 PM
Sensor [1]: SR225 SB Bridgedeck No Report - - - - - - 4 / 9.9 12/11/2014 7:53:17 PM
101-SR45 @ Rock Creek (200100) Status Air Temp Sfc Temp Sub Temp Dew Temp Wind Precip Traffic Updated
Sensor [A]: Atmospheric - 30.7 - - 20.8 0.6 / SE - - 12/19/2014 4:55:28 PM
102-SR7 @ SR167 East (200101) Status Air Temp Sfc Temp Sub Temp Dew Temp Wind Precip Traffic Updated
Sensor [A]: Atmospheric - 57.7 - - 54.3 11.8 / S - - 11/24/2014 6:04:15 AM
Sensor [0]: SR7 NB Wet - 51.1 - - - - 6 / 42.3 11/24/2014 6:04:15 AM
Sensor [1]: SR7 SB Bridgedeck Wet - 50.5 - - - - 0 / 5.0 11/24/2014 6:04:15 AM
103- I-70 @ SR-79 (200102) Status Air Temp Sfc Temp Sub Temp Dew Temp Wind Precip Traffic Updated
Sensor [A]: Atmospheric - 29.1 - - 22.8 - - - 12/20/2014 1:51:09 AM
Sensor [1]: SR79 SB Bridgedeck Dry - 31.1 - - - - 36 / 50.3 12/20/2014 1:51:09 AM
Sensor [2]: IR70 EB Driving Dry - 34.7 - - - - 32 / 60.3 12/20/2014 1:51:09 AM
104-SR 3 KNOX/Ashland (200103) Status Air Temp Sfc Temp Sub Temp Dew Temp Wind Precip Traffic Updated
Sensor [A]: Atmospheric - 27.9 - - 25.2 1.2 / S - - 12/21/2014 2:42:25 AM
Sensor [0]: SR3 SB Trace Moisture - 31.1 35.8 - - - 2 / 52.2 12/21/2014 2:42:25 AM
105-IR70/IR75 (200104) Status Air Temp Sfc Temp Sub Temp Dew Temp Wind Precip Traffic Updated
Sensor [A]: Atmospheric - 24.8 - - 17.6 - - - 12/21/2014 3:13:23 AM
Sensor [0]: IR75 NB Driving Dry - 31.1 - - - - 12 / 60.3 12/21/2014 3:13:23 AM
106-SR39 @ Sugarcreek (200105) Status Air Temp Sfc Temp Sub Temp Dew Temp Wind Precip Traffic Updated
Sensor [A]: Atmospheric - 28.4 - - 23.7 1.2 / SW - - 12/21/2014 3:24:28 AM
Sensor [0]: SR39 EB Lane No Report - - - - - - 6 / 51.0 12/21/2014 3:24:28 AM
Sensor [1]: SR39 WB Lane Trace Moisture - 31.8 - - - - 131 / 47.8 12/21/2014 3:24:28 AM
107-US250 @ Ulrichsville (200106) Status Air Temp Sfc Temp Sub Temp Dew Temp Wind Precip Traffic Updated
Sensor [A]: Atmospheric - 29.1 - - 23.4 - - - 12/21/2014 3:23:53 AM
Sensor [0]: US250 EB Driving Dry - 34.7 38.3 - - - 0 / 5.0 12/21/2014 3:23:53 AM
Sensor [1]: US250 WB Driving Dry - 34.7 - - - - 0 / 5.0 12/21/2014 3:23:53 AM
108-SR183 @ Minerva (200107) Status Air Temp Sfc Temp Sub Temp Dew Temp Wind Precip Traffic Updated
Sensor [A]: Atmospheric - 27.9 - - 23.5 - - - 12/21/2014 4:15:46 AM
Sensor [0]: SR183 NB Bridgedeck Trace Moisture - 29.3 36.5 - - - 9 / 70.8 12/21/2014 4:15:46 AM
Sensor [1]: SR183 SB Trace Moisture - 31.3 - - - - 4 / 9.9 12/21/2014 4:15:46 AM
109-SR22 @ SR151 (200108) Status Air Temp Sfc Temp Sub Temp Dew Temp Wind Precip Traffic Updated
Sensor [A]: Atmospheric - 29.3 - - 19.9 0.6 / SE - - 12/20/2014 5:07:45 PM
Sensor [0]: SR22E Driving Lane Dry - 31.1 32.9 - - - 19 / 67.1 12/20/2014 5:07:45 PM
Sensor [1]: SR22W Passing Lane Dry - 32.0 - - - - 2 / 73.9 12/20/2014 5:07:45 PM
110-SR7 @ SR213 (200109) Status Air Temp Sfc Temp Sub Temp Dew Temp Wind Precip Traffic Updated
Sensor [A]: Atmospheric - 27.9 - - 24.4 0.6 / S - - 12/21/2014 3:16:42 AM
Sensor [0]: SR7 NB Driving Dry - 31.5 40.1 - - - 6 / 42.3 12/21/2014 3:16:42 AM
111-I70 MM 114 (200110) Status Air Temp Sfc Temp Sub Temp Dew Temp Wind Precip Traffic Updated
Sensor [A]: Atmospheric - 30.0 - - 25.5 - - - 12/21/2014 3:11:19 AM
112-USR 27 @ 21 MM (200111) Status Air Temp Sfc Temp Sub Temp Dew Temp Wind Precip Traffic Updated
Sensor [A]: Atmospheric - 29.1 - - 21.7 1.2 / SE - - 12/19/2014 9:32:14 PM
Sensor [0]: SR27 NB Lane Dry - 31.1 41.2 - - - 15 / 57.2 12/19/2014 9:32:14 PM
Sensor [1]: SR27 SB Lane Dry - 31.1 - - - - 2 / 47.2 12/19/2014 9:32:14 PM
113-I-275 @ USR 52 (200112) Status Air Temp Sfc Temp Sub Temp Dew Temp Wind Precip Traffic Updated
Sensor [A]: Atmospheric - 33.4 - - 24.3 0.6 / SE - - 12/20/2014 2:20:10 PM
Sensor [0]: I275 SB Driving Bridgedeck Dry - 40.1 - - - - 28 / 60.3 12/20/2014 2:20:10 PM
114-IR71 @ US36 (38000) Status Air Temp Sfc Temp Sub Temp Dew Temp Wind Precip Traffic Updated
Sensor [A]: Atmospheric - 28.8 - - 22.5 - - - 12/21/2014 3:22:51 AM
Sensor [0]: I71 SB Driving Ice Watch - 29.3 - - - - - 12/21/2014 3:22:51 AM
Sensor [1]: US36 WB Departure Wet - 34.7 - - - - - 12/21/2014 3:22:51 AM
Sensor [2]: US36 WB Bridge Ice Watch - 31.1 - - - - - 12/21/2014 3:22:51 AM
115-IR71 @ Schrock Road (38001) Status Air Temp Sfc Temp Sub Temp Dew Temp Wind Precip Traffic Updated
Sensor [A]: Atmospheric - 29.5 - - 23.7 0.6 / S - - 12/21/2014 3:23:03 AM
Sensor [0]: Schrock Rd Approach Ice Watch - 31.8 - - - - - 12/21/2014 3:23:03 AM
Sensor [1]: Schrock Rd Bridgedeck Ice Watch - 29.1 - - - - - 12/21/2014 3:23:03 AM
116-IR70W @ I270 (38004) Status Air Temp Sfc Temp Sub Temp Dew Temp Wind Precip Traffic Updated
Sensor [A]: Atmospheric - - - - - 1.9 / W - - 12/21/2014 3:23:05 AM
Sensor [0]: I-70 EB Drive Error - - - - - - - 12/21/2014 3:23:05 AM
117-IR70 @ SR29 (38005) Status Air Temp Sfc Temp Sub Temp Dew Temp Wind Precip Traffic Updated
Sensor [A]: Atmospheric - 28.8 - - 23.0 - - - 12/21/2014 3:23:07 AM
Sensor [0]: SR29 NB Bridgedeck Dry - 34.7 - - - - - 12/21/2014 3:23:07 AM
Sensor [1]: I70 EB Passing Dry - 29.3 - - - - - 12/21/2014 3:23:07 AM
Sensor [2]: I70 WB Driving Dry - 31.1 - - - - - 12/21/2014 3:23:07 AM
118-IR70/IR71/SR315 (38006) Status Air Temp Sfc Temp Sub Temp Dew Temp Wind Precip Traffic Updated
Sensor [A]: Atmospheric - 30.7 - - 23.4 - - - 12/21/2014 3:12:38 AM
Sensor [0]: I70 WB to I71 SB Ramp Dry - 34.0 - - - - - 12/21/2014 3:12:38 AM
Sensor [1]: I70 EB to SR315 Ramp Chemically Wet - 32.0 - - - - - 12/21/2014 3:12:38 AM
Sensor [3]: I70 WB Driving Wet - 36.5 - - - - - 12/21/2014 3:12:38 AM
119-IR71S @ I270 (38007) Status Air Temp Sfc Temp Sub Temp Dew Temp Wind Precip Traffic Updated
Sensor [A]: Atmospheric - 33.1 - - 23.2 7.5 / N - - 1/20/2014 6:31:46 AM
Sensor [2]: I270 EB Passing Error - - - - - - - 1/20/2014 6:31:46 AM
120-US33 @ Hamilton Road (38010) Status Air Temp Sfc Temp Sub Temp Dew Temp Wind Precip Traffic Updated
Sensor [A]: Atmospheric - 30.4 - - 20.8 0.6 / E - - 12/21/2014 3:23:52 AM
Sensor [1]: US33 EB Passing Dry - 34.7 - - - - - 12/21/2014 3:23:52 AM
121-I-670 Over Airport Connector (38014) Status Air Temp Sfc Temp Sub Temp Dew Temp Wind Precip Traffic Updated
Sensor [A]: Atmospheric - 30.2 - - 22.6 - - - 12/21/2014 3:24:13 AM
Sensor [0]: Airport Connector Bridgedeck Ice Watch - 29.3 - - - - - 12/21/2014 3:24:13 AM
Sensor [1]: I670 EB Passing Chemically Wet - 30.0 - - - - - 12/21/2014 3:24:13 AM
Sensor [2]: I670 WB Passing Ice Warning - 30.9 - - - - - 12/21/2014 3:24:13 AM
122-Medina Line Rd. Over I-271 (612000) Status Air Temp Sfc Temp Sub Temp Dew Temp Wind Precip Traffic Updated
Sensor [A]: Atmospheric - 27.9 - - 23.7 - - - 12/21/2014 3:20:20 AM
Sensor [0]: SB Bridge Ice Watch - 27.3 - - - - - 12/21/2014 3:20:20 AM
Sensor [1]: SB Road Dry - 29.3 - - - - - 12/21/2014 3:20:20 AM
123-Steels Corner Rd. /Mud Creek (612003) Status Air Temp Sfc Temp Sub Temp Dew Temp Wind Precip Traffic Updated
Sensor [A]: Atmospheric - 28.9 - - 26.4 - - - 12/21/2014 3:20:27 AM
Sensor [0]: WB Bridge Ice Watch - 29.1 - - - - - 12/21/2014 3:20:27 AM
124-Old Mill Rd. Over I-480 (612004) Status Air Temp Sfc Temp Sub Temp Dew Temp Wind Precip Traffic Updated
Sensor [A]: Atmospheric - 28.8 - - 25.5 - - - 12/21/2014 3:20:44 AM
Sensor [0]: I480 EB Driving Trace Moisture - 34.7 - - - - - 12/21/2014 3:20:44 AM
125-Ridgewood Rd. Over Rt 21 (612006) Status Air Temp Sfc Temp Sub Temp Dew Temp Wind Precip Traffic Updated
Sensor [A]: Atmospheric - 27.9 - - 24.3 - - - 12/21/2014 3:20:49 AM
Sensor [0]: EB Bridge Deck Dry - 29.3 - - - - - 12/21/2014 3:20:49 AM
126-Killian Rd. Over I-77 (612011) Status Air Temp Sfc Temp Sub Temp Dew Temp Wind Precip Traffic Updated
Sensor [A]: Atmospheric - 26.8 - - 20.3 1.9 / W - - 12/21/2014 3:20:56 AM
Sensor [0]: EB Bridge Ice Warning - 26.2 36.0 - - - - 12/21/2014 3:20:56 AM
127-US 6 Williams County (582000) Status Air Temp Sfc Temp Sub Temp Dew Temp Wind Precip Traffic Updated
Sensor [A]: Atmospheric - 28.6 - - 28.2 - - - 12/21/2014 3:20:55 AM
Sensor [0]: US-6 EB Lane Dry - 29.3 - - - - 0 / 65.2 12/21/2014 3:20:55 AM
Sensor [2]: US6 EB Ice Watch - 30.4 34.9 - - - - 12/21/2014 3:20:55 AM
128-US 20 @ SLM 1.5 ***Under Construction*** (582001) Status Air Temp Sfc Temp Sub Temp Dew Temp Wind Precip Traffic Updated
Sensor [A]: Atmospheric - 28.0 - - 25.5 - - - 12/21/2014 3:20:59 AM
129-US 20 @ SLM 11.5 (582002) Status Air Temp Sfc Temp Sub Temp Dew Temp Wind Precip Traffic Updated
Sensor [A]: Atmospheric - 27.9 - - 27.9 - - - 12/21/2014 3:21:02 AM
Sensor [2]: SR-20A WB Approach Ice Watch - 29.5 35.6 - - - - 12/21/2014 3:21:02 AM
Sensor [3]: SR-20A WB Deck Ice Watch - 27.0 - - - - - 12/21/2014 3:21:02 AM
130-US 20A @ SLM 2.5 Fulton (582003) Status Air Temp Sfc Temp Sub Temp Dew Temp Wind Precip Traffic Updated
Sensor [A]: Atmospheric - 25.0 - - -24.2 - - - 12/21/2014 3:21:24 AM
Sensor [0]: US-20 EB Deck Ice Watch - 25.7 - - - - - 12/21/2014 3:21:24 AM
Sensor [1]: US-20 EB Approach Ice Watch - 29.1 - - - - - 12/21/2014 3:21:24 AM
131-US 20 @ SLM 9.5 Fulton (582004) Status Air Temp Sfc Temp Sub Temp Dew Temp Wind Precip Traffic Updated
Sensor [A]: Atmospheric - 25.2 - - - - - - 12/21/2014 3:21:50 AM
Sensor [0]: US-20 WB Deck Ice Watch - 25.2 - - - - - 12/21/2014 3:21:50 AM
Sensor [1]: US-20 EB Approach Ice Watch - 28.2 - - - - - 12/21/2014 3:21:50 AM
132-SR 64 @ SLM 6.0 Fulton (582005) Status Air Temp Sfc Temp Sub Temp Dew Temp Wind Precip Traffic Updated
Sensor [A]: Atmospheric - 22.5 - - 21.6 2.5 / SW - - 12/21/2014 3:22:00 AM
133-US 6 @ SLM .5 (582006) Status Air Temp Sfc Temp Sub Temp Dew Temp Wind Precip Traffic Updated
Sensor [A]: Atmospheric - 24.6 - - 24.4 - - - 12/21/2014 3:22:11 AM
Sensor [0]: US-6 WB Ice Watch - 28.0 43.2 - - - - 12/21/2014 3:22:11 AM
134-SR 108 @ SLM .5 (582007) Status Air Temp Sfc Temp Sub Temp Dew Temp Wind Precip Traffic Updated
Sensor [A]: Atmospheric - 23.2 - - 21.7 1.2 / SW - - 12/21/2014 3:20:27 AM
Sensor [0]: SR-108 NB Chemically Wet - 17.6 37.2 - - - - 12/21/2014 3:20:27 AM
135-US Rt 6 @ Maumee River (582008) Status Air Temp Sfc Temp Sub Temp Dew Temp Wind Precip Traffic Updated
Sensor [A]: Atmospheric - 26.8 - - 25.5 8.7 / SW - - 11/13/2014 9:20:08 PM
Sensor [0]: US-6 EB Deck Error - 24.3 - - - - - 11/13/2014 9:20:08 PM
Sensor [1]: US-6 WB Deck Error - - - - - - - 11/13/2014 9:20:08 PM
136-Rt 65 South Henry County (582009) Status Air Temp Sfc Temp Sub Temp Dew Temp Wind Precip Traffic Updated
Sensor [A]: Atmospheric - 21.6 - - 20.3 3.1 / SW - - 12/21/2014 3:21:04 AM
Sensor [0]: SR-65 NB Ice Watch - 17.6 - - - - - 12/21/2014 3:21:04 AM
137 - SR 64 @ SLM 7.5 Lucas (582010) Status Air Temp Sfc Temp Sub Temp Dew Temp Wind Precip Traffic Updated
Sensor [A]: Atmospheric - 21.6 - - 20.5 - - - 12/21/2014 3:21:09 AM
Sensor [0]: SR-64 EB Approach Dry - 26.2 - - - - - 12/21/2014 3:21:09 AM
Sensor [1]: SR-64 EB @ RPU Ice Watch - 24.4 - - - - - 12/21/2014 3:21:09 AM
138-US 24 near Grand Rapids (582011) Status Air Temp Sfc Temp Sub Temp Dew Temp Wind Precip Traffic Updated
Sensor [A]: Atmospheric - 21.9 - - 21.9 - - - 12/21/2014 3:21:29 AM
Sensor [0]: SR-578 SB Maumee River Ice Watch - 22.6 37.6 - - - - 12/21/2014 3:21:29 AM
Sensor [1]: SR-578 SB Ice Watch - 24.6 - - - - - 12/21/2014 3:21:29 AM
139-I-80 & I-475 Lucas ***Under Construction*** (582012) Status Air Temp Sfc Temp Sub Temp Dew Temp Wind Precip Traffic Updated
Sensor [A]: Atmospheric - 72.1 - - 71.6 1.9 / SW - - 10/3/2013 11:40:42 AM
Sensor [0]: I-475 NB Deck Dry - 77.0 - - - - - 10/3/2013 11:40:42 AM
Sensor [1]: I-475 SB Approach Error - - - - - - - 10/3/2013 11:40:42 AM
140-IR 475 @ US 23 Split ***Under Construction*** (582013) Status Air Temp Sfc Temp Sub Temp Dew Temp Wind Precip Traffic Updated
Sensor [A]: Atmospheric - 32.5 - - 18.7 - - - 12/21/2014 3:22:10 AM
141-IR 75 @ SLM 4.9 475 Split (582014) Status Air Temp Sfc Temp Sub Temp Dew Temp Wind Precip Traffic Updated
Sensor [A]: Atmospheric - 25.0 - - 24.3 - - - 12/21/2014 3:20:27 AM
Sensor [1]: I-75 SB Ice Watch - 23.0 - - - - - 12/21/2014 3:20:27 AM
142 - I-280 @ Veterans Glass City Skyway (VGCS) (582016) Status Air Temp Sfc Temp Sub Temp Dew Temp Wind Precip Traffic Updated
Sensor [A]: Atmospheric - 27.9 - - 24.6 3.1 / SW - - 12/21/2014 3:20:43 AM
Sensor [1]: NB I-280 Center Lane Ice Watch - 22.3 - - - - 5 / 34.2 12/21/2014 3:20:43 AM
Sensor [4]: SB I-280 Center Lane Ice Watch - 21.6 - - - - 7 / 65.2 12/21/2014 3:20:43 AM
143-SR 2 @ MP 31.8 Lucas (582017) Status Air Temp Sfc Temp Sub Temp Dew Temp Wind Precip Traffic Updated
Sensor [A]: Atmospheric - 28.9 - - 25.9 1.9 / SW - - 12/21/2014 3:20:48 AM
144-IR 75 & Eagleville Rd. (582018) Status Air Temp Sfc Temp Sub Temp Dew Temp Wind Precip Traffic Updated
Sensor [A]: Atmospheric - 76.6 - - 63.0 4.3 / NE - - 8/18/2014 11:00:17 AM
Sensor [0]: I-75 NB Deck Error - - - - - - - 8/18/2014 11:00:17 AM
Sensor [1]: I-75 SB Deck Error - - - - - - - 8/18/2014 11:00:17 AM
145-IR 75 @ SLM 18.36 Wood (582019) Status Air Temp Sfc Temp Sub Temp Dew Temp Wind Precip Traffic Updated
Sensor [A]: Atmospheric - 80.8 - - 54.1 2.5 / E - - 8/7/2014 12:00:20 PM
Sensor [0]: I-75 NB Approach Error - 112.6 - - - - - 8/7/2014 12:00:20 PM
Sensor [1]: I-75 SB Deck Dry - 108.3 - - - - - 8/7/2014 12:00:20 PM
146-I-75 @ I-475 Wood ***Under Construction*** (582020) Status Air Temp Sfc Temp Sub Temp Dew Temp Wind Precip Traffic Updated
Sensor [A]: Atmospheric - 23.4 - - - - - - 12/21/2014 3:20:57 AM
147-I-75 @ I-80 Wood County (582021) Status Air Temp Sfc Temp Sub Temp Dew Temp Wind Precip Traffic Updated
Sensor [A]: Atmospheric - 23.9 - - 23.9 0.6 / SW - - 12/21/2014 3:21:00 AM
Sensor [0]: I-75 NB Deck Ice Watch - 25.0 - - - - - 12/21/2014 3:21:00 AM
Sensor [1]: I-75 SB Deck Error - - - - - - - 12/21/2014 3:21:00 AM
148-US-6 @ Rt. 23 (582022) Status Air Temp Sfc Temp Sub Temp Dew Temp Wind Precip Traffic Updated
Sensor [A]: Atmospheric - 25.9 - - 23.9 3.7 / SW - - 12/21/2014 3:21:03 AM
Sensor [0]: US-6 EB Trace Moisture - - - - - - 0 / 9.9 12/21/2014 3:21:03 AM
Sensor [1]: US-23 NB Dry - - - - - - 0 / 9.9 12/21/2014 3:21:03 AM
149-US-20 @ Lemoyne Rd. (582023) Status Air Temp Sfc Temp Sub Temp Dew Temp Wind Precip Traffic Updated
Sensor [A]: Atmospheric - 24.6 - - 23.4 - - - 12/21/2014 3:21:10 AM
150-I-280 @ Libbey Rd. (582024) Status Air Temp Sfc Temp Sub Temp Dew Temp Wind Precip Traffic Updated
Sensor [A]: Atmospheric - 25.3 - - 22.8 1.2 / S - - 12/21/2014 3:21:31 AM
151-SR 2 @ Portage River Bridge (582025) Status Air Temp Sfc Temp Sub Temp Dew Temp Wind Precip Traffic Updated
Sensor [A]: Atmospheric - 29.8 - - 26.6 - - - 12/21/2014 3:21:46 AM
Sensor [0]: SR-2 EB Departure Ice Watch - 32.0 38.5 - - - - 12/21/2014 3:21:46 AM
Sensor [1]: SR-2 WB Deck Ice Watch - 29.5 - - - - - 12/21/2014 3:21:46 AM
152-SR-2@28.5 Bay Br. (582026) Status Air Temp Sfc Temp Sub Temp Dew Temp Wind Precip Traffic Updated
Sensor [A]: Atmospheric - 31.1 - - 31.1 - - - 12/21/2014 3:21:50 AM
Sensor [3]: SR2 EB Driving Lane - Bridge Deck Chemically Wet - 29.3 - - - - 0 / 0.0 12/21/2014 3:21:50 AM
153-US-20 @ Sugar Creek (582027) Status Air Temp Sfc Temp Sub Temp Dew Temp Wind Precip Traffic Updated
Sensor [A]: Atmospheric - 28.8 - - 27.1 - - - 12/21/2014 3:20:06 AM
Sensor [1]: US-20 WB Passing Ice Watch - 29.3 - - - - 0 / 0.0 12/21/2014 3:20:06 AM
154-US-6 @ Sandusky River Br (582028) Status Air Temp Sfc Temp Sub Temp Dew Temp Wind Precip Traffic Updated
Sensor [A]: Atmospheric - 30.2 - - 29.5 0.6 / S - - 12/21/2014 3:20:19 AM
Sensor [0]: US-6 EB Approach Error - 32.2 - - - - - 12/21/2014 3:20:19 AM
Sensor [1]: US-6 WB Deck Ice Watch - 30.0 - - - - - 12/21/2014 3:20:19 AM
155-US 6 @ Pickeral Creek (582029) Status Air Temp Sfc Temp Sub Temp Dew Temp Wind Precip Traffic Updated
Sensor [A]: Atmospheric - -3.1 - - -4.0 2.5 / S - - 12/21/2014 3:20:27 AM
Sensor [0]: US-6 WB Departure Error - - - - - - - 12/21/2014 3:20:27 AM
Sensor [1]: US-6 WB Deck Ice Watch - -2.7 - - - - - 12/21/2014 3:20:27 AM
156-CR 296 & US 20 MP 31.0 (582030) Status Air Temp Sfc Temp Sub Temp Dew Temp Wind Precip Traffic Updated
Sensor [A]: Atmospheric - 29.8 - - 29.5 1.9 / S - - 12/21/2014 3:20:44 AM
Sensor [0]: US-20 WB Dry - 31.6 38.1 - - - - 12/21/2014 3:20:44 AM
157-US 23 @ MP 5.5 Seneca (582031) Status Air Temp Sfc Temp Sub Temp Dew Temp Wind Precip Traffic Updated
Sensor [A]: Atmospheric - 21.2 - - 18.9 2.5 / S - - 12/21/2014 3:20:49 AM
Sensor [0]: US-23 NB Ice Watch - 23.7 - - - - - 12/21/2014 3:20:49 AM
158-SR 12 @ Mp 7.0 Seneca (582032) Status Air Temp Sfc Temp Sub Temp Dew Temp Wind Precip Traffic Updated
Sensor [A]: Atmospheric - 23.0 - - 22.3 2.5 / SW - - 12/21/2014 3:20:56 AM
159-US 224 @ SR 53 Seneca (582033) Status Air Temp Sfc Temp Sub Temp Dew Temp Wind Precip Traffic Updated
Sensor [A]: Atmospheric - 25.7 - - 23.5 - - - 12/21/2014 3:20:58 AM
Sensor [0]: SR-224 EB Bridge Deck Ice Watch - 22.1 - - - - - 12/21/2014 3:20:58 AM
Sensor [1]: US-224 EB Approach Ice Watch - 23.9 - - - - - 12/21/2014 3:20:58 AM
160-SR 4 @ MP 2.35 Seneca (582034) Status Air Temp Sfc Temp Sub Temp Dew Temp Wind Precip Traffic Updated
Sensor [A]: Atmospheric - 28.8 - - 24.3 1.9 / N - - 12/21/2014 3:21:01 AM
161-I-90 @ SR-252 (562000) Status Air Temp Sfc Temp Sub Temp Dew Temp Wind Precip Traffic Updated
Sensor [A]: Atmospheric - 29.7 - - 28.0 1.9 / SW - - 12/21/2014 3:20:05 AM
Sensor [0]: SR-252 NB RL over I-90 Ice Watch - 29.3 - - - - - 12/21/2014 3:20:05 AM
162-I-90 @ Abbey Rd. (562001) Status Air Temp Sfc Temp Sub Temp Dew Temp Wind Precip Traffic Updated
Sensor [A]: Atmospheric - - - - - / Unknown - - -
Sensor [0]: I-90 EB N3 Lane Wet - 74.7 82.2 - - - - 8/20/2011 11:10:14 PM
Sensor [2]: I-90 WB N3 Lane Bridge Wet - 71.8 - - - - - 8/20/2011 11:10:14 PM
163-I-90 @ E. 140th (562002) Status Air Temp Sfc Temp Sub Temp Dew Temp Wind Precip Traffic Updated
Sensor [A]: Atmospheric - 31.8 - - 27.9 1.9 / SW - - 12/21/2014 3:20:49 AM
Sensor [1]: I-90 WB N3 Lane Bridge Dry - 32.0 - - - - - 12/21/2014 3:20:49 AM
Sensor [2]: I-90 EB N3 Lane Bridge Dry - 32.0 - - - - - 12/21/2014 3:20:49 AM
164-I-271 @ I-90 (562003) Status Air Temp Sfc Temp Sub Temp Dew Temp Wind Precip Traffic Updated
Sensor [A]: Atmospheric - 35.1 - - 28.8 - - - 12/21/2014 3:20:56 AM
Sensor [0]: I-271 NB TG I-90 EB Wet - 32.2 - - - - - 12/21/2014 3:20:56 AM
Sensor [1]: I-90 EB N2 Lane Bridge Dry - 34.7 - - - - - 12/21/2014 3:20:56 AM
Sensor [2]: I-271 NB TG I-90 WB Bridge Ice Watch - 29.8 - - - - - 12/21/2014 3:20:56 AM
Sensor [3]: I-271 NB TG I-90 WB Ice Watch - 31.8 - - - - - 12/21/2014 3:20:56 AM
165-I-480 @ SR-10 (562004) Status Air Temp Sfc Temp Sub Temp Dew Temp Wind Precip Traffic Updated
Sensor [A]: Atmospheric - 28.6 - - 27.7 - - - 12/21/2014 3:20:58 AM
Sensor [0]: I-480 EB N2 Lane Bridge Ice Watch - 29.1 - - - - - 12/21/2014 3:20:58 AM
Sensor [1]: I-480 WB N2 Lane Bridge Ice Watch - 29.1 - - - - - 12/21/2014 3:20:58 AM
166-I-71 @ Snow Rd. (562005) Status Air Temp Sfc Temp Sub Temp Dew Temp Wind Precip Traffic Updated
Sensor [A]: Atmospheric - 29.8 - - 28.8 - - - 12/21/2014 3:21:01 AM
Sensor [0]: I-71 NB N3 Lane Bridge Dry - 30.6 - - - - - 12/21/2014 3:21:01 AM
Sensor [1]: I-71 SB N3 Lane Bridge Dry - 30.4 - - - - - 12/21/2014 3:21:01 AM
167-I-77 @ I-480 (562006) Status Air Temp Sfc Temp Sub Temp Dew Temp Wind Precip Traffic Updated
Sensor [A]: Atmospheric - 30.7 - - 28.4 5.0 / SW - - 12/21/2014 3:21:03 AM
Sensor [0]: I-77 NB N2L Br @ SR-17 Error - - - - - - - 12/21/2014 3:21:03 AM
Sensor [1]: I-77 SB N2L Br @ SR-17 Error - - - - - - - 12/21/2014 3:21:03 AM
Sensor [3]: I-77 NB RL Br over I-480 Dry - 30.2 - - - - - 12/21/2014 3:21:03 AM
168-I-480 N @ Miles Rd. (562007) Status Air Temp Sfc Temp Sub Temp Dew Temp Wind Precip Traffic Updated
Sensor [A]: Atmospheric - 35.2 - - 31.3 2.5 / N - - 12/21/2014 3:20:04 AM
Sensor [0]: I-480 N WB N2 Lane Dry - 29.3 - - - - - 12/21/2014 3:20:04 AM
169-I-271 @ US-322 (562008) Status Air Temp Sfc Temp Sub Temp Dew Temp Wind Precip Traffic Updated
Sensor [A]: Atmospheric - 29.1 - - 28.2 1.9 / W - - 12/21/2014 3:20:06 AM
Sensor [1]: I-271 SB N2 Lane Dry - 31.5 - - - - - 12/21/2014 3:20:06 AM
Sensor [3]: I-271 NB N2 Lane Dry - 31.5 - - - - - 12/21/2014 3:20:06 AM
170-I-71 @ Drake Rd. (562009) Status Air Temp Sfc Temp Sub Temp Dew Temp Wind Precip Traffic Updated
Sensor [A]: Atmospheric - 28.4 - - 24.4 0.6 / S - - 12/21/2014 3:20:19 AM
Sensor [0]: I-71 NB N2 Lane Ice Watch - 30.4 36.0 - - - - 12/21/2014 3:20:19 AM
Sensor [1]: I-71 NB N2 Lane Br Ice Watch - 28.4 - - - - - 12/21/2014 3:20:19 AM
Sensor [2]: I-71 SB N2 Lane Br Ice Watch - 30.2 - - - - - 12/21/2014 3:20:19 AM
171-I-77 @ SR-82 (562010) Status Air Temp Sfc Temp Sub Temp Dew Temp Wind Precip Traffic Updated
Sensor [A]: Atmospheric - 28.8 - - 25.0 0.6 / S - - 12/21/2014 3:20:28 AM
Sensor [0]: I-77 NB N2 Lane Br Dry - 29.3 - - - - - 12/21/2014 3:20:28 AM
Sensor [2]: I-77 SB N2 Lane Dry - 30.2 - - - - - 12/21/2014 3:20:28 AM
172-US-422 @ Chagrin Blvd. (562011) Status Air Temp Sfc Temp Sub Temp Dew Temp Wind Precip Traffic Updated
Sensor [A]: Atmospheric - 29.5 - - 22.8 - - - 12/21/2014 3:20:44 AM
Sensor [0]: US-422 WB N2 Lane Dry - 31.6 38.7 - - - - 12/21/2014 3:20:44 AM
Sensor [1]: US-422 WB N2 Lane Br Dry - 34.7 - - - - - 12/21/2014 3:20:44 AM
Sensor [2]: US-422 EB N2 Lane Br Dry - 30.0 - - - - - 12/21/2014 3:20:44 AM
173-US-422 @ SR-44 (562012) Status Air Temp Sfc Temp Sub Temp Dew Temp Wind Precip Traffic Updated
Sensor [A]: Atmospheric - 28.0 - - 22.3 - - - 12/21/2014 3:20:47 AM
174- SR-528 @SR-87 (562013) Status Air Temp Sfc Temp Sub Temp Dew Temp Wind Precip Traffic Updated
Sensor [A]: Atmospheric - 28.4 - - 27.3 1.2 / W - - 12/21/2014 3:20:02 AM
Sensor [0]: SR528 NB Trace Moisture - 34.7 - - - - - 12/21/2014 3:20:02 AM
175-SR-44 @ Mentor Rd. (562014) Status Air Temp Sfc Temp Sub Temp Dew Temp Wind Precip Traffic Updated
Sensor [A]: Atmospheric - 28.0 - - 28.0 0.6 / W - - 12/21/2014 3:20:05 AM
Sensor [0]: SR44 NB Wet - 34.7 38.3 - - - - 12/21/2014 3:20:05 AM
176-SR-528 @ SR-166 (562015) Status Air Temp Sfc Temp Sub Temp Dew Temp Wind Precip Traffic Updated
Sensor [A]: Atmospheric - 29.1 - - 25.7 - - - 12/21/2014 3:20:19 AM
Sensor [0]: SR-528 SB N of SR-166 Chemically Wet - 29.3 - - - - - 12/21/2014 3:20:19 AM
Sensor [1]: SR-166 WB W of SR-528 Chemically Wet - 29.3 - - - - - 12/21/2014 3:20:19 AM
177-I-90 @ Hermitage Rd. (562016) Status Air Temp Sfc Temp Sub Temp Dew Temp Wind Precip Traffic Updated
Sensor [A]: Atmospheric - 30.2 - - 30.0 - - - 12/21/2014 3:20:27 AM
Sensor [0]: I-90 WB N2 Lane Br Dry - 34.7 - - - - - 12/21/2014 3:20:27 AM
Sensor [1]: I-90 EB N2 Lane Br Dry - 34.7 - - - - - 12/21/2014 3:20:27 AM
Sensor [2]: I90 EB Driving Lane Dry - 34.7 - - - - - 12/21/2014 3:20:27 AM
178-I-90 @ Paine Rd. (562017) Status Air Temp Sfc Temp Sub Temp Dew Temp Wind Precip Traffic Updated
Sensor [A]: Atmospheric - 30.0 - - 30.0 1.9 / W - - 12/21/2014 3:20:44 AM
Sensor [0]: I-90 WB N2 Lane Br Trace Moisture - 34.7 - - - - - 12/21/2014 3:20:44 AM
Sensor [1]: I-90 EB N2 Lane Br Dry - 34.7 - - - - - 12/21/2014 3:20:44 AM
Sensor [2]: I90 EB Driving Lane Trace Moisture - 34.7 38.3 - - - - 12/21/2014 3:20:44 AM
179-US-20 @ Parmly Rd. (562018) Status Air Temp Sfc Temp Sub Temp Dew Temp Wind Precip Traffic Updated
Sensor [A]: Atmospheric - 30.9 - - 30.2 - - - 12/21/2014 3:20:49 AM
180-I270 @ US33 (38015) Status Air Temp Sfc Temp Sub Temp Dew Temp Wind Precip Traffic Updated
Sensor [A]: Atmospheric - 28.2 - - 28.2 0.6 / NW - - 12/21/2014 3:10:22 AM
181-US32 @ Pike & Adams County Line (200180) Status Air Temp Sfc Temp Sub Temp Dew Temp Wind Precip Traffic Updated
Sensor [A]: Atmospheric - 28.2 - - 20.1 1.2 / N Snow / 0.0 - 12/18/2014 4:21:40 PM
Sensor [0]: US32 EB Driving Dry - 38.3 - - - - 1 / 9.9 12/18/2014 4:21:40 PM
Sensor [1]: US32 WB Driving Dry - 38.3 - - - - 4 / 9.9 12/18/2014 4:21:40 PM
182-I71 @ SR665 Grove City Outpost (200181) Status Air Temp Sfc Temp Sub Temp Dew Temp Wind Precip Traffic Updated
Sensor [A]: Atmospheric - 29.3 - - 25.5 - - - 12/21/2014 3:17:05 AM
Sensor [0]: IR71 NB Driving Dry - 31.1 - - - - 5 / 57.8 12/21/2014 3:17:05 AM
183-US30 @ SR68 (200182) Status Air Temp Sfc Temp Sub Temp Dew Temp Wind Precip Traffic Updated
Sensor [A]: Atmospheric - 26.6 - - 20.7 8.7 / NW - - 12/18/2014 4:04:56 AM
Sensor [0]: US30 EB Driving Dry - 29.3 - - - - - 12/18/2014 4:04:56 AM
184 - I-71 at Red Bank (80000) Status Air Temp Sfc Temp Sub Temp Dew Temp Wind Precip Traffic Updated
Sensor [A]: Atmospheric - 26.2 - - 23.9 4.3 / N - - 12/21/2014 3:20:55 AM
Sensor [0]: I71 NB Driving Dry - 31.1 - - - - - 12/21/2014 3:20:55 AM
185 - River Road @ Kibby Lane ***Under Construction*** (80001) Status Air Temp Sfc Temp Sub Temp Dew Temp Wind Precip Traffic Updated
Sensor [A]: Atmospheric - 55.2 - - 43.5 2.5 / E - - 10/22/2014 1:50:40 PM
186-SR49 @ SR81 (200185) Status Air Temp Sfc Temp Sub Temp Dew Temp Wind Precip Traffic Updated
Sensor [A]: Atmospheric - 26.6 - - 24.1 0.6 / E - - 12/20/2014 12:35:00 AM
Sensor [0]: SR81 Eastbound Approach Ice Watch - 27.5 - - - - - 12/20/2014 12:35:00 AM
Sensor [1]: SR81 Westbound Bridgedeck Ice Watch - 26.6 - - - - - 12/20/2014 12:35:00 AM
187-SR15 @ SR613 (200186) Status Air Temp Sfc Temp Sub Temp Dew Temp Wind Precip Traffic Updated
Sensor [A]: Atmospheric - 23.2 - - 22.5 - - - 12/21/2014 3:21:05 AM
Sensor [0]: SR15 NB Lane Trace Moisture - 27.0 - - - - - 12/21/2014 3:21:05 AM
188-SR2 @ INDIANA LINE (200187) Status Air Temp Sfc Temp Sub Temp Dew Temp Wind Precip Traffic Updated
Sensor [A]: Atmospheric - 29.3 - - 27.9 0.6 / SW - - 12/21/2014 3:21:16 AM
Sensor [0]: SR2 EB Lane Dry - 31.5 - - - - - 12/21/2014 3:21:16 AM